This is the latest recevied weather packets stored in our database for station/object EA8AYY-10. If no packets are shown the sender has not sent any weather packets the latest 10 day(s).
| Time | Temp. | Humidity | Pressure | Rain* | Wind** | Luminosity | Snow |
|---|---|---|---|---|---|---|---|
| 1787540521 | 25° C | 58% | 1022.5 hPa | - | - | - | - |
| 1787539620 | 21.11° C | 63% | 1022.7 hPa | - | - | - | - |
| 1787538720 | 21.67° C | 63% | 1022.7 hPa | - | - | - | - |
| 1787537820 | 21.11° C | 63% | 1022.7 hPa | - | - | - | - |
| 1787536920 | 21.67° C | 60% | 1023 hPa | - | - | - | - |
| 1787536019 | 22.22° C | 58% | 1023.2 hPa | - | - | - | - |
| 1787535119 | 21.11° C | 60% | 1023.2 hPa | - | - | - | - |
| 1787534219 | 21.11° C | 60% | 1023.2 hPa | - | - | - | - |
| 1787533319 | 24.44° C | 54% | 1023.4 hPa | - | - | - | - |
| 1787532417 | 21.11° C | 59% | 1023.5 hPa | - | - | - | - |
| 1787531517 | 21.11° C | 59% | 1023.7 hPa | - | - | - | - |
| 1787530617 | 21.67° C | 58% | 1023.7 hPa | - | - | - | - |
| 1787529717 | 21.11° C | 60% | 1023.9 hPa | - | - | - | - |
| 1787528816 | 22.22° C | 57% | 1024 hPa | - | - | - | - |
| 1787527916 | 21.11° C | 59% | 1023.9 hPa | - | - | - | - |
| 1787527016 | 21.67° C | 59% | 1023.9 hPa | - | - | - | - |
| 1787526116 | 22.22° C | 54% | 1024 hPa | - | - | - | - |
| 1787525216 | 21.67° C | 57% | 1024 hPa | - | - | - | - |
| 1787524316 | 24.44° C | 54% | 1024 hPa | - | - | - | - |
| 1787523411 | 21.67° C | 56% | 1024 hPa | - | - | - | - |
| 1787522511 | 21.67° C | 58% | 1024 hPa | - | - | - | - |
| 1787521623 | 22.78° C | 57% | 1024 hPa | - | - | - | - |
| 1787520722 | 22.22° C | 60% | 1024 hPa | - | - | - | - |
| 1787519821 | 22.78° C | 59% | 1023.9 hPa | - | - | - | - |
| 1787518921 | 25.56° C | 55% | 1023.7 hPa | - | - | - | - |
* Rain since midnight (hover to see other rain measurements)
** Current wind speed in m/s (hover to see current wind gust speed)